Raporty najbliższych stacji METAR

 

EPPO - Poznan/Lawica, Poland
Odległość od stacji: Zd 102km
Aktualizacja: 19-01-24 09:00
Pochmurno
Pochmurno
 Wiatr z WsPdWs
Wiatr: WsPdWs 19 km/h
Temperatura: -6°C
Wind Chill: -13°C
Punkt Rosy: -9°C
Wilgotność: 80%
Ciśnienie: 1012 hPa
Zachmurzenie: Pochmurno
Widoczność: 10 km
Szczegóły o zachmurzeniu: Pochmurno 366 m
2019/01/24 08:00 EPPO 240800Z 11010KT 9999 OVC012 M06/M09 Q1012 R10/19//95
EPLL - Łódź, Ziemia Łódzka, Polska
Odległość od stacji: ES 127km
Aktualizacja: 19-01-24 09:00
Pochmurno
Pochmurno
 Wiatr z Ws
Wiatr: Ws 20 km/h
Temperatura: -6°C
Wind Chill: -13°C
Punkt Rosy: -8°C
Wilgotność: 86%
Ciśnienie: 1012 hPa
Zachmurzenie: Pochmurno
Widoczność: 10 km
Szczegóły o zachmurzeniu: niewielkie zachmurzenie 183 m
Pochmurno 335 m
2019/01/24 08:00 EPLL 240800Z 09011KT 9999 FEW006 OVC011 M06/M08 Q1012
EPWR - Wrocław, Dolny Śląsk, Polska
Odległość od stacji: PdZd 198km
Aktualizacja: 19-01-24 09:00
Lekki śnieg, Pochmurno
Lekki śnieg, Pochmurno
 Wiatr z WsPdWs
Wiatr: WsPdWs 20 km/h
Temperatura: -5°C
Wind Chill: -12°C
Punkt Rosy: -9°C
Wilgotność: 74%
Ciśnienie: 1011 hPa
Podsumowanie: Light Snow
Zachmurzenie: Pochmurno
Widoczność: 10 km
Szczegóły o zachmurzeniu: niewielkie zachmurzenie 305 m
Pochmurno 366 m
2019/01/24 08:00 EPWR 240800Z 12011KT 9999 -SN FEW010 OVC012 M05/M09 Q1011
 
EPWA - Warszawa, Mazowsze, Polska
Odległość od stacji: Ws 209km
Aktualizacja: 19-01-24 09:00
Lekki śnieg, Pochmurno
Lekki śnieg, Pochmurno
 Wiatr z Ws
Wiatr: Ws 19 km/h
Temperatura: -6°C
Wind Chill: -13°C
Punkt Rosy: -9°C
Wilgotność: 80%
Ciśnienie: 1014 hPa
Podsumowanie: Light Snow
Zachmurzenie: Pochmurno
Widoczność: 10 km
Szczegóły o zachmurzeniu: Pochmurno 488 m
2019/01/24 08:00 EPWA 240800Z 10010KT 9999 -SN OVC016 M06/M09 Q1014 NOSIG
EPGD - Gdańsk, Pomorze, Polska
Odległość od stacji: Pn 253km
Aktualizacja: 19-01-24 09:00
Częściowe zachmurzenie
Częściowe zachmurzenie
 Wiatr z Ws
Wiatr: Ws 6 km/h
Temperatura: -10°C
Punkt Rosy: -11°C
Wilgotność: 92%
Ciśnienie: 1015 hPa
Zachmurzenie: Częściowe zachmurzenie
Widoczność: 9 km
2019/01/24 08:00 EPGD 240800Z 09003KT 050V120 9000 NSC M10/M11 Q1015
EPKT - Katowice, Śląsk, Polska
Odległość od stacji: Pd 270km
Aktualizacja: 19-01-24 09:00
Lekki śnieg, Low drifting, Śnieg, Pochmurno
Lekki śnieg, Low drifting, Śnieg, Pochmurno
 Wiatr z Ws
Wiatr: Ws 19 km/h
Temperatura: -7°C
Wind Chill: -14°C
Punkt Rosy: -9°C
Wilgotność: 86%
Ciśnienie: 1009 hPa
Podsumowanie: Lekki śnieg, Low drifting, Śnieg
Zachmurzenie: Pochmurno
Widoczność: 7 km
Szczegóły o zachmurzeniu: Częściowe zachmurzenie 61 m
Pochmurno 152 m
2019/01/24 08:00 EPKT 240800Z 08010KT 7000 -SN DRSN SCT002 OVC005 M07/M09 Q1009
 
EPSC - Szczecin, Pomorze Zachodnie, Polska
Odległość od stacji: PnZd 329km
Aktualizacja: 19-01-24 09:00
Częściowe zachmurzenie
Częściowe zachmurzenie
 Wiatr z Ws
Wiatr: Ws 6 km/h
Temperatura: -8°C
Punkt Rosy: -10°C
Wilgotność: 86%
Ciśnienie: 1013 hPa
Zachmurzenie: Częściowe zachmurzenie
Widoczność: 7 km
2019/01/24 08:00 EPSC 240800Z 08003KT 7000 NSC M08/M10 Q1013
EPBY - Bydgoszcz
Odległość od stacji: Pn 95km
Aktualizacja: 19-01-24 09:00
Pochmurno
Pochmurno
 Wiatr z Ws
Wiatr: Ws 19 km/h
Temperatura: -7°C
Wind Chill: -14°C
Punkt Rosy: -9°C
Wilgotność: 86%
Ciśnienie: 1014 hPa
Zachmurzenie: Pochmurno
Widoczność: 8 km
Szczegóły o zachmurzeniu: Pochmurno 305 m
2019/01/24 08:00 EPBY 240800Z 10010KT 8000 OVC010 M07/M09 Q1014
EPZG - Zielona Góra, Ziemia Lubuska, Polska
Odległość od stacji: ZdPdZa 235km
Aktualizacja: 19-01-24 09:00
Zamglenia, Pochmurno
Zamglenia, Pochmurno
 Wiatr z WsPnWs
Wiatr: WsPnWs 9 km/h
Temperatura: -6°C
Wind Chill: -11°C
Punkt Rosy: -7°C
Wilgotność: 93%
Ciśnienie: 1012 hPa
Podsumowanie: Zamglenia
Zachmurzenie: Pochmurno
Widoczność: 4 km
Szczegóły o zachmurzeniu: Pochmurno 457 m
2019/01/24 08:00 EPZG 240800Z 06005KT 4100 BR OVC015 M06/M07 Q1012